createdAt,value
2022-09-23T00:01:07.791Z,12.16
2022-09-23T00:03:37.108Z,12.05
2022-09-23T00:06:06.308Z,12.06
2022-09-23T00:08:33.042Z,12.07
2022-09-23T00:11:11.695Z,12.13
2022-09-23T00:13:39.211Z,12.17
2022-09-23T00:16:07.010Z,12.20
2022-09-23T00:18:33.514Z,12.31
2022-09-23T00:21:09.162Z,12.16
2022-09-23T00:23:35.817Z,12.33
2022-09-23T00:26:04.332Z,12.28
2022-09-23T00:28:31.506Z,11.91
2022-09-23T00:31:02.570Z,11.95
2022-09-23T00:33:29.791Z,11.88
2022-09-23T00:36:04.133Z,11.98
2022-09-23T00:38:30.708Z,12.01
2022-09-23T00:40:58.390Z,12.20
2022-09-23T00:43:46.954Z,12.09
2022-09-23T00:46:28.138Z,12.10
2022-09-23T00:49:14.192Z,11.91
2022-09-23T00:51:45.522Z,11.83
2022-09-23T00:54:11.908Z,11.84
2022-09-23T00:56:39.397Z,11.75
2022-09-23T00:59:07.269Z,11.65
2022-09-23T01:01:33.692Z,11.57
2022-09-23T01:04:00.390Z,11.52
2022-09-23T01:06:26.847Z,11.56
2022-09-23T01:08:53.324Z,11.53
2022-09-23T01:11:29.823Z,11.51
2022-09-23T01:14:02.342Z,11.32
2022-09-23T01:16:41.581Z,11.45
2022-09-23T01:19:37.295Z,11.63
2022-09-23T01:22:06.413Z,11.57
2022-09-23T01:24:38.496Z,11.38
2022-09-23T01:27:23.127Z,11.53
2022-09-23T01:30:24.653Z,11.61
2022-09-23T01:32:58.594Z,11.67
2022-09-23T01:35:30.359Z,11.64
2022-09-23T01:37:59.666Z,11.68
2022-09-23T01:40:31.346Z,11.51
2022-09-23T01:43:04.922Z,11.30
2022-09-23T01:45:44.412Z,11.21
2022-09-23T01:48:36.925Z,11.25
2022-09-23T01:51:12.151Z,11.17
2022-09-23T01:54:00.324Z,11.23
2022-09-23T01:56:37.603Z,11.02
2022-09-23T01:59:09.188Z,11.36
2022-09-23T02:01:40.585Z,11.28
2022-09-23T02:04:11.457Z,11.23
2022-09-23T02:06:43.291Z,11.34
2022-09-23T02:09:16.042Z,11.30
2022-09-23T02:11:46.344Z,11.23
2022-09-23T02:14:21.426Z,11.25
2022-09-23T02:16:51.199Z,11.25
2022-09-23T02:19:22.485Z,11.17
2022-09-23T02:22:05.665Z,11.14
2022-09-23T02:24:34.581Z,11.14
2022-09-23T02:27:07.796Z,11.13
2022-09-23T02:29:45.604Z,10.81
2022-09-23T02:32:32.180Z,10.99
2022-09-23T02:35:15.551Z,11.04
2022-09-23T02:37:48.189Z,10.92
2022-09-23T02:40:32.066Z,10.94
2022-09-23T02:43:03.908Z,11.00
2022-09-23T02:45:31.065Z,10.85
2022-09-23T02:48:02.812Z,10.92
2022-09-23T02:50:30.838Z,10.90
2022-09-23T02:52:58.205Z,10.98
2022-09-23T02:55:25.359Z,10.94
2022-09-23T02:57:52.327Z,10.86
2022-09-23T03:00:19.119Z,10.87
2022-09-23T03:03:23.595Z,10.85
2022-09-23T03:05:56.554Z,10.86
2022-09-23T03:08:36.761Z,10.74
2022-09-23T03:11:13.427Z,10.75
2022-09-23T03:14:05.039Z,10.84
2022-09-23T03:16:44.533Z,10.55
2022-09-23T03:19:35.265Z,10.61
2022-09-23T03:22:19.006Z,10.85
2022-09-23T03:24:46.071Z,10.67
2022-09-23T03:27:16.122Z,10.86
2022-09-23T03:29:47.084Z,10.69
2022-09-23T03:32:14.731Z,10.61
2022-09-23T03:34:43.034Z,10.74
2022-09-23T03:37:20.777Z,10.72
2022-09-23T03:39:51.665Z,10.83
2022-09-23T03:42:24.359Z,10.86
2022-09-23T03:44:56.776Z,10.79
2022-09-23T03:47:25.226Z,10.83
2022-09-23T03:49:52.188Z,10.96
2022-09-23T03:52:20.798Z,10.99
2022-09-23T03:54:47.356Z,10.98
2022-09-23T03:57:14.112Z,10.90
2022-09-23T03:59:40.767Z,10.97
2022-09-23T04:02:07.720Z,11.02
2022-09-23T04:04:36.388Z,11.09
2022-09-23T04:07:03.588Z,11.17
2022-09-23T04:09:30.287Z,11.11
2022-09-23T04:11:56.713Z,11.21
2022-09-23T04:14:23.414Z,11.33
2022-09-23T04:16:50.201Z,11.38
2022-09-23T04:19:17.057Z,11.46
2022-09-23T04:21:44.253Z,11.42
2022-09-23T04:24:11.300Z,11.52
2022-09-23T04:26:38.738Z,11.50
2022-09-23T04:29:05.376Z,11.55
2022-09-23T04:31:32.702Z,11.43
2022-09-23T04:33:59.314Z,11.59
2022-09-23T04:36:26.341Z,11.65
2022-09-23T04:38:52.780Z,11.58
2022-09-23T04:41:19.640Z,11.56
2022-09-23T04:43:46.017Z,11.52
2022-09-23T04:46:13.948Z,11.80
2022-09-23T04:48:44.361Z,11.74
2022-09-23T04:51:13.174Z,11.87
2022-09-23T04:53:41.984Z,11.89
2022-09-23T04:56:24.275Z,11.92
2022-09-23T04:58:51.295Z,11.72
2022-09-23T05:01:24.799Z,11.66
2022-09-23T05:03:52.986Z,11.97
2022-09-23T05:06:20.330Z,11.97
2022-09-23T05:08:51.490Z,11.97
2022-09-23T05:11:18.650Z,11.85
2022-09-23T05:13:46.835Z,11.99
2022-09-23T05:16:13.396Z,11.92
2022-09-23T05:18:42.575Z,12.09
2022-09-23T05:21:10.392Z,12.02
2022-09-23T05:23:37.688Z,11.97
2022-09-23T05:26:06.507Z,12.06
2022-09-23T05:28:34.238Z,12.00
2022-09-23T05:31:04.254Z,12.03
2022-09-23T05:33:31.922Z,11.97
2022-09-23T05:35:58.302Z,11.84
2022-09-23T05:38:25.078Z,12.02
2022-09-23T05:41:03.079Z,12.00
2022-09-23T05:43:29.805Z,12.14
2022-09-23T05:46:08.330Z,12.18
2022-09-23T05:48:36.085Z,12.27
2022-09-23T05:51:03.519Z,12.27
2022-09-23T05:53:30.533Z,12.20
2022-09-23T05:55:57.561Z,12.17
2022-09-23T05:58:24.318Z,12.33
2022-09-23T06:00:51.338Z,12.29
2022-09-23T06:03:19.930Z,12.42
2022-09-23T06:05:46.768Z,12.45
2022-09-23T06:08:13.400Z,12.33
2022-09-23T06:10:44.207Z,12.41
2022-09-23T06:13:11.406Z,12.47
2022-09-23T06:15:38.961Z,12.42
2022-09-23T06:18:06.420Z,12.44
2022-09-23T06:20:35.830Z,12.51
2022-09-23T06:23:09.361Z,12.51
2022-09-23T06:25:38.373Z,12.47
2022-09-23T06:28:05.168Z,12.60
2022-09-23T06:30:31.595Z,12.40
2022-09-23T06:32:58.129Z,12.47
2022-09-23T06:35:27.588Z,12.56
2022-09-23T06:37:54.927Z,12.62
2022-09-23T06:40:22.465Z,12.62
2022-09-23T06:42:52.333Z,12.56
2022-09-23T06:45:18.901Z,12.71
2022-09-23T06:47:45.309Z,12.80
2022-09-23T06:50:12.576Z,12.84
2022-09-23T06:52:39.150Z,12.89
2022-09-23T06:55:06.258Z,12.76
2022-09-23T06:57:33.127Z,12.72
2022-09-23T06:59:59.640Z,12.78
2022-09-23T07:02:26.810Z,13.07
2022-09-23T07:04:57.021Z,12.99
2022-09-23T07:07:23.619Z,13.09
2022-09-23T07:09:50.227Z,13.12
2022-09-23T07:12:16.589Z,13.19
2022-09-23T07:14:42.949Z,13.20
2022-09-23T07:17:09.448Z,13.37
2022-09-23T07:19:36.153Z,13.34
2022-09-23T07:22:02.548Z,13.24
2022-09-23T07:24:28.995Z,13.33
2022-09-23T07:26:55.505Z,13.57
2022-09-23T07:29:22.154Z,13.59
2022-09-23T07:31:48.645Z,13.47
2022-09-23T07:34:15.082Z,13.77
2022-09-23T07:36:41.741Z,13.67
2022-09-23T07:39:11.003Z,13.86
2022-09-23T07:41:37.999Z,13.69
2022-09-23T07:44:05.992Z,13.81
2022-09-23T07:46:34.271Z,14.03
2022-09-23T07:49:01.865Z,14.15
2022-09-23T07:51:35.372Z,14.17
2022-09-23T07:54:02.839Z,14.23
2022-09-23T07:56:30.509Z,14.39
2022-09-23T07:59:00.164Z,14.35
2022-09-23T08:01:29.120Z,14.56
2022-09-23T08:04:00.201Z,14.46
2022-09-23T08:06:26.666Z,14.50
2022-09-23T08:08:53.569Z,14.46
2022-09-23T08:11:20.213Z,14.67
2022-09-23T08:13:46.673Z,14.59
2022-09-23T08:16:13.658Z,14.83
2022-09-23T08:18:40.078Z,14.85
2022-09-23T08:21:06.486Z,14.92
2022-09-23T08:23:33.857Z,14.95
2022-09-23T08:26:02.411Z,15.12
2022-09-23T08:28:29.101Z,15.19
2022-09-23T08:30:55.758Z,15.21
2022-09-23T08:33:23.635Z,15.27
2022-09-23T08:35:51.023Z,15.50
2022-09-23T08:38:17.669Z,15.54
2022-09-23T08:40:47.388Z,15.66
2022-09-23T08:43:29.884Z,15.74
2022-09-23T08:45:58.367Z,15.76
2022-09-23T08:48:33.640Z,16.08
2022-09-23T08:51:04.237Z,16.06
2022-09-23T08:53:36.409Z,16.15
2022-09-23T08:56:15.468Z,16.11
2022-09-23T08:58:48.106Z,16.40
2022-09-23T09:01:33.170Z,16.38
2022-09-23T09:04:12.401Z,16.26
2022-09-23T09:06:53.669Z,16.51
2022-09-23T09:09:30.793Z,16.70
2022-09-23T09:12:03.870Z,16.61
2022-09-23T09:14:37.922Z,16.92
2022-09-23T09:17:10.332Z,17.02
2022-09-23T09:19:55.845Z,17.00
2022-09-23T09:22:41.621Z,17.25
2022-09-23T09:25:33.478Z,17.34
2022-09-23T09:28:01.336Z,17.22
2022-09-23T09:30:30.042Z,17.63
2022-09-23T09:33:04.707Z,17.63
2022-09-23T09:36:01.631Z,17.52
2022-09-23T09:38:28.212Z,17.40
2022-09-23T09:40:55.743Z,17.62
2022-09-23T09:43:24.979Z,17.64
2022-09-23T09:46:10.897Z,17.48
2022-09-23T09:48:53.655Z,17.43
2022-09-23T09:51:24.632Z,17.35
2022-09-23T09:53:55.645Z,17.52
2022-09-23T09:56:31.177Z,17.63
2022-09-23T09:59:06.552Z,17.64
2022-09-23T10:01:34.878Z,17.68
2022-09-23T10:04:04.015Z,17.54
2022-09-23T10:06:33.094Z,17.83
2022-09-23T10:09:11.867Z,17.94
2022-09-23T10:11:38.793Z,17.96
2022-09-23T10:14:19.248Z,17.83
2022-09-23T10:16:48.821Z,18.00
2022-09-23T10:19:27.978Z,17.58
2022-09-23T10:21:56.872Z,17.78
2022-09-23T10:24:26.658Z,17.81
2022-09-23T10:27:00.316Z,17.78
2022-09-23T10:29:38.497Z,17.93
2022-09-23T10:32:28.357Z,18.04
2022-09-23T10:35:03.262Z,18.09
2022-09-23T10:37:48.359Z,18.05
2022-09-23T10:40:48.870Z,18.09
2022-09-23T10:43:47.077Z,17.96
2022-09-23T10:46:37.818Z,17.91
2022-09-23T10:49:20.716Z,17.96
2022-09-23T10:52:05.335Z,18.12
2022-09-23T10:54:43.930Z,18.04
2022-09-23T10:57:30.174Z,18.17
2022-09-23T11:00:10.278Z,18.25
2022-09-23T11:02:52.479Z,18.38
2022-09-23T11:05:44.279Z,18.31
2022-09-23T11:08:10.585Z,18.54
2022-09-23T11:10:46.094Z,18.54
2022-09-23T11:13:54.695Z,18.37
2022-09-23T11:16:40.797Z,18.56
2022-09-23T11:19:25.527Z,18.44
2022-09-23T11:22:15.897Z,18.46
2022-09-23T11:24:58.312Z,18.62
2022-09-23T11:27:37.205Z,18.68
2022-09-23T11:30:03.485Z,18.52
2022-09-23T11:32:48.633Z,18.46
2022-09-23T11:35:21.178Z,18.49
2022-09-23T11:38:01.878Z,18.51
2022-09-23T11:40:33.523Z,18.75
2022-09-23T11:43:02.889Z,18.77
2022-09-23T11:45:35.642Z,18.79
2022-09-23T11:48:26.786Z,18.68
2022-09-23T11:51:11.596Z,19.03
2022-09-23T11:53:45.812Z,19.03
2022-09-23T11:56:32.881Z,19.05
2022-09-23T11:59:04.757Z,19.16
2022-09-23T12:01:37.854Z,19.14
2022-09-23T12:04:24.279Z,19.32
2022-09-23T12:07:05.497Z,19.22
2022-09-23T12:09:57.702Z,19.24
2022-09-23T12:12:32.306Z,19.15
2022-09-23T12:15:13.225Z,19.05
2022-09-23T12:18:02.915Z,18.97
2022-09-23T12:20:37.097Z,19.22
2022-09-23T12:23:19.245Z,19.17
2022-09-23T12:25:47.202Z,19.12
2022-09-23T12:28:24.160Z,19.17
2022-09-23T12:30:51.922Z,19.24
2022-09-23T12:33:27.538Z,19.22
2022-09-23T12:35:55.322Z,19.19
2022-09-23T12:38:25.256Z,19.14
2022-09-23T12:40:53.329Z,19.20
2022-09-23T12:43:30.274Z,19.06
2022-09-23T12:46:29.428Z,18.91
2022-09-23T12:48:59.892Z,19.01
2022-09-23T12:51:36.564Z,19.03
2022-09-23T12:54:06.867Z,19.10
2022-09-23T12:56:36.287Z,19.18
2022-09-23T12:59:24.059Z,19.19
2022-09-23T13:01:50.653Z,19.24
2022-09-23T13:05:03.940Z,19.03
2022-09-23T13:07:34.177Z,18.77
2022-09-23T13:10:11.196Z,19.04
2022-09-23T13:12:39.430Z,18.98
2022-09-23T13:15:15.535Z,18.88
2022-09-23T13:17:41.995Z,18.98
2022-09-23T13:20:20.791Z,19.25
2022-09-23T13:22:51.733Z,19.37
2022-09-23T13:25:34.769Z,19.08
2022-09-23T13:28:02.243Z,19.37
2022-09-23T13:30:28.766Z,18.94
2022-09-23T13:33:17.160Z,19.11
2022-09-23T13:35:46.781Z,19.05
2022-09-23T13:38:20.569Z,19.24
2022-09-23T13:40:47.402Z,19.02
2022-09-23T13:43:22.877Z,19.17
2022-09-23T13:45:49.923Z,19.18
2022-09-23T13:48:16.659Z,19.28
2022-09-23T13:50:47.788Z,19.30
2022-09-23T13:53:26.546Z,19.35
2022-09-23T13:56:29.533Z,19.14
2022-09-23T13:59:15.774Z,19.07
2022-09-23T14:01:42.305Z,19.15
2022-09-23T14:04:23.359Z,18.75
2022-09-23T14:06:49.913Z,18.94
2022-09-23T14:09:17.898Z,18.91
2022-09-23T14:11:44.544Z,18.95
2022-09-23T14:14:13.470Z,19.02
2022-09-23T14:16:40.738Z,19.02
2022-09-23T14:19:11.399Z,19.12
2022-09-23T14:21:40.090Z,19.28
2022-09-23T14:24:22.802Z,19.20
2022-09-23T14:26:54.995Z,19.33
2022-09-23T14:29:25.047Z,19.42
2022-09-23T14:32:02.281Z,19.39
2022-09-23T14:34:51.595Z,19.31
2022-09-23T14:37:36.513Z,19.38
2022-09-23T14:40:18.902Z,19.15
2022-09-23T14:42:48.924Z,19.23
2022-09-23T14:45:22.047Z,19.39
2022-09-23T14:47:57.385Z,18.96
2022-09-23T14:50:43.629Z,19.14
2022-09-23T14:53:33.101Z,18.87
2022-09-23T14:56:08.690Z,18.93
2022-09-23T14:58:58.083Z,19.03
2022-09-23T15:01:30.878Z,18.92
2022-09-23T15:04:13.571Z,18.91
2022-09-23T15:06:44.815Z,18.76
2022-09-23T15:09:20.066Z,18.89
2022-09-23T15:11:46.814Z,18.82
2022-09-23T15:14:36.627Z,18.75
2022-09-23T15:17:01.285Z,18.93
2022-09-23T15:19:28.880Z,18.80
2022-09-23T15:21:55.371Z,18.92
2022-09-23T15:24:36.334Z,18.78
2022-09-23T15:27:03.034Z,18.75
2022-09-23T15:29:30.274Z,18.73
2022-09-23T15:31:57.738Z,18.78
2022-09-23T15:34:24.160Z,18.65
2022-09-23T15:36:50.717Z,18.71
2022-09-23T15:39:17.121Z,18.67
2022-09-23T15:41:43.874Z,18.77
2022-09-23T15:44:15.198Z,18.65
2022-09-23T15:46:51.827Z,18.56
2022-09-23T15:49:36.718Z,18.09
2022-09-23T15:52:04.283Z,18.56
2022-09-23T15:54:32.346Z,18.59
2022-09-23T15:56:58.781Z,18.40
2022-09-23T15:59:25.162Z,18.41
2022-09-23T16:01:52.340Z,18.35
2022-09-23T16:04:19.006Z,18.22
2022-09-23T16:06:48.230Z,18.24
2022-09-23T16:09:15.468Z,18.12
2022-09-23T16:11:47.047Z,18.10
2022-09-23T16:14:15.562Z,17.91
2022-09-23T16:16:44.855Z,18.07
2022-09-23T16:19:12.342Z,17.96
2022-09-23T16:21:40.796Z,17.82
2022-09-23T16:24:17.991Z,17.88
2022-09-23T16:26:46.512Z,17.92
2022-09-23T16:29:13.237Z,17.82
2022-09-23T16:31:39.994Z,17.72
2022-09-23T16:34:06.610Z,17.57
2022-09-23T16:36:35.849Z,17.68
2022-09-23T16:39:05.037Z,17.54
2022-09-23T16:41:31.765Z,17.50
2022-09-23T16:44:00.532Z,17.34
2022-09-23T16:46:29.030Z,17.38
2022-09-23T16:48:57.495Z,17.29
2022-09-23T16:51:26.572Z,17.30
2022-09-23T16:53:56.427Z,17.18
2022-09-23T16:56:28.465Z,17.08
2022-09-23T16:58:55.494Z,17.10
2022-09-23T17:01:42.938Z,16.95
2022-09-23T17:04:10.605Z,17.02
2022-09-23T17:06:43.184Z,17.03
2022-09-23T17:09:10.097Z,17.01
2022-09-23T17:11:38.040Z,16.89
2022-09-23T17:14:05.219Z,16.54
2022-09-23T17:16:34.387Z,16.71
2022-09-23T17:19:06.928Z,16.67
2022-09-23T17:21:33.534Z,16.61
2022-09-23T17:24:00.374Z,16.59
2022-09-23T17:26:27.269Z,16.45
2022-09-23T17:28:56.111Z,16.37
2022-09-23T17:31:24.292Z,16.40
2022-09-23T17:33:51.619Z,16.43
2022-09-23T17:36:18.525Z,16.41
2022-09-23T17:38:46.098Z,16.42
2022-09-23T17:41:13.561Z,16.50
2022-09-23T17:43:40.718Z,16.57
2022-09-23T17:46:14.500Z,16.48
2022-09-23T17:48:41.799Z,16.24
2022-09-23T17:51:17.381Z,16.25
2022-09-23T17:53:45.314Z,16.48
2022-09-23T17:56:19.310Z,16.47
2022-09-23T17:58:47.050Z,16.56
2022-09-23T18:01:31.844Z,16.43
2022-09-23T18:04:00.590Z,16.49
2022-09-23T18:06:31.722Z,16.37
2022-09-23T18:09:01.435Z,16.47
2022-09-23T18:11:28.485Z,16.20
2022-09-23T18:14:00.285Z,16.26
2022-09-23T18:16:29.093Z,16.30
2022-09-23T18:18:57.453Z,16.24
2022-09-23T18:21:25.348Z,16.15
2022-09-23T18:23:51.951Z,16.25
2022-09-23T18:26:22.867Z,16.25
2022-09-23T18:28:52.659Z,16.25
2022-09-23T18:31:20.161Z,16.19
2022-09-23T18:33:54.469Z,16.12
2022-09-23T18:36:22.927Z,16.22
2022-09-23T18:38:50.353Z,16.21
2022-09-23T18:41:17.445Z,16.17
2022-09-23T18:43:48.310Z,16.15
2022-09-23T18:46:20.338Z,16.12
2022-09-23T18:49:05.949Z,16.11
2022-09-23T18:51:34.641Z,15.97
2022-09-23T18:54:02.487Z,15.99
2022-09-23T18:56:33.564Z,16.06
2022-09-23T18:59:00.612Z,16.14
2022-09-23T19:01:27.179Z,16.14
2022-09-23T19:03:57.783Z,16.17
2022-09-23T19:06:24.977Z,16.08
2022-09-23T19:08:53.094Z,16.12
2022-09-23T19:11:20.129Z,16.05
2022-09-23T19:13:46.751Z,16.09
2022-09-23T19:16:15.261Z,15.98
2022-09-23T19:18:43.057Z,15.97
2022-09-23T19:21:12.625Z,16.17
2022-09-23T19:23:40.344Z,16.20
2022-09-23T19:26:09.407Z,16.16
2022-09-23T19:28:36.746Z,16.01
2022-09-23T19:31:15.065Z,16.13
2022-09-23T19:33:41.780Z,16.03
2022-09-23T19:36:09.507Z,16.06
2022-09-23T19:38:38.262Z,16.09
2022-09-23T19:41:06.665Z,16.04
2022-09-23T19:43:33.045Z,16.01
2022-09-23T19:45:59.500Z,16.06
2022-09-23T19:48:25.911Z,16.03
2022-09-23T19:50:52.358Z,15.96
2022-09-23T19:53:18.876Z,15.90
2022-09-23T19:55:45.259Z,15.88
2022-09-23T19:58:12.369Z,15.84
2022-09-23T20:00:38.777Z,15.78
2022-09-23T20:03:05.274Z,15.68
2022-09-23T20:05:31.658Z,15.73
2022-09-23T20:08:00.927Z,15.78
2022-09-23T20:10:27.366Z,15.66
2022-09-23T20:12:53.774Z,15.74
2022-09-23T20:15:20.671Z,15.78
2022-09-23T20:17:47.026Z,15.77
2022-09-23T20:20:15.621Z,15.61
2022-09-23T20:22:42.156Z,15.70
2022-09-23T20:25:13.371Z,15.66
2022-09-23T20:27:40.206Z,15.71
2022-09-23T20:30:07.471Z,15.73
2022-09-23T20:32:35.428Z,15.55
2022-09-23T20:35:01.807Z,15.61
2022-09-23T20:37:28.314Z,15.55
2022-09-23T20:39:54.687Z,15.75
2022-09-23T20:42:21.768Z,15.64
2022-09-23T20:44:48.312Z,15.74
2022-09-23T20:47:17.864Z,15.64
2022-09-23T20:49:46.093Z,15.71
2022-09-23T20:52:15.108Z,15.65
2022-09-23T20:54:42.051Z,15.77
2022-09-23T20:57:10.876Z,15.58
2022-09-23T20:59:37.582Z,15.72
2022-09-23T21:02:04.801Z,15.57
2022-09-23T21:04:31.472Z,15.55
2022-09-23T21:06:58.117Z,15.55
2022-09-23T21:09:29.008Z,15.52
2022-09-23T21:11:55.549Z,15.49
2022-09-23T21:14:22.466Z,15.46
2022-09-23T21:16:52.700Z,15.48
2022-09-23T21:19:19.469Z,15.38
2022-09-23T21:21:45.923Z,15.46
2022-09-23T21:24:40.019Z,15.27
2022-09-23T21:26:58.841Z,15.31
2022-09-23T21:29:25.199Z,15.23
2022-09-23T21:31:51.611Z,15.29
2022-09-23T21:34:18.159Z,15.22
2022-09-23T21:36:44.658Z,15.14
2022-09-23T21:39:11.860Z,15.02
2022-09-23T21:41:39.393Z,15.11
2022-09-23T21:44:06.388Z,15.22
2022-09-23T21:46:35.808Z,15.17
2022-09-23T21:49:03.640Z,15.19
2022-09-23T21:51:38.443Z,15.08
2022-09-23T21:54:05.613Z,15.05
2022-09-23T21:56:37.542Z,15.12
2022-09-23T21:59:04.904Z,15.15
2022-09-23T22:01:36.437Z,15.10
2022-09-23T22:04:09.219Z,15.23
2022-09-23T22:06:37.969Z,15.23
2022-09-23T22:09:08.866Z,15.26
2022-09-23T22:11:55.572Z,15.29
2022-09-23T22:14:25.983Z,15.25
2022-09-23T22:16:58.836Z,15.21
2022-09-23T22:19:26.865Z,15.21
2022-09-23T22:21:53.913Z,15.16
2022-09-23T22:24:20.278Z,15.18
2022-09-23T22:26:46.820Z,15.21
2022-09-23T22:29:33.208Z,15.19
2022-09-23T22:32:19.968Z,15.13
2022-09-23T22:34:50.674Z,15.23
2022-09-23T22:37:21.207Z,15.10
2022-09-23T22:39:47.633Z,15.02
2022-09-23T22:42:14.325Z,15.19
2022-09-23T22:44:40.763Z,15.20
2022-09-23T22:47:07.991Z,15.22
2022-09-23T22:49:34.460Z,15.18
2022-09-23T22:52:02.305Z,15.09
2022-09-23T22:54:33.446Z,15.17
2022-09-23T22:57:03.130Z,15.17
2022-09-23T22:59:29.564Z,15.20
2022-09-23T23:01:56.021Z,15.16
2022-09-23T23:04:22.438Z,15.20
2022-09-23T23:06:48.841Z,15.27
2022-09-23T23:09:16.697Z,15.25
2022-09-23T23:11:43.900Z,15.18
2022-09-23T23:14:12.146Z,15.20
2022-09-23T23:16:38.872Z,15.15
2022-09-23T23:19:09.433Z,15.33
2022-09-23T23:21:36.803Z,15.22
2022-09-23T23:24:04.397Z,15.34
2022-09-23T23:26:32.510Z,15.38
2022-09-23T23:28:59.568Z,15.31
2022-09-23T23:31:27.474Z,15.42
2022-09-23T23:33:53.906Z,15.38
2022-09-23T23:36:21.801Z,15.44
2022-09-23T23:38:49.274Z,15.38
2022-09-23T23:41:18.569Z,15.36
2022-09-23T23:43:46.359Z,15.40
2022-09-23T23:46:14.143Z,15.36
2022-09-23T23:48:41.813Z,15.28
2022-09-23T23:51:10.775Z,15.28
2022-09-23T23:53:38.956Z,15.27
2022-09-23T23:56:12.103Z,15.24
2022-09-23T23:58:39.125Z,15.29
